Time;durP1;ratioP1;P1;durP2;ratioP2;P2;SDS_P1;SDS_P2;PMS_P1;PMS_P2;Temp;Humidity;BMP_temperature;BMP_pressure;BME280_temperature;BME280_humidity;BME280_pressure;Samples;Min_cycle;Max_cycle;Signal;HPM_P1;HPM_P2
2023/05/27 00:01:02;;;;;;;3.47;1.52;;;;;;;15.27;73.17;96899.53;5038860;28;20216;-71
2023/05/27 00:03:28;;;;;;;2.00;1.23;;;;;;;15.17;73.15;96895.47;5039128;28;20239;-71
2023/05/27 00:05:56;;;;;;;6.82;1.00;;;;;;;15.32;71.02;96896.28;5038786;28;20196;-70
2023/05/27 00:08:23;;;;;;;1.52;1.08;;;;;;;15.33;71.48;96897.94;5038163;28;20221;-69
2023/05/27 00:10:49;;;;;;;2.10;1.13;;;;;;;15.35;73.66;96896.72;5039156;28;20197;-71
2023/05/27 00:13:16;;;;;;;4.78;1.92;;;;;;;15.21;71.73;96896.81;5038692;28;20855;-71
2023/05/27 00:15:43;;;;;;;0.52;0.52;;;;;;;15.24;71.59;96899.88;5038823;28;20446;-71
2023/05/27 00:18:09;;;;;;;2.63;1.55;;;;;;;15.21;72.47;96899.47;5037818;28;20224;-68
2023/05/27 00:20:36;;;;;;;2.53;1.17;;;;;;;15.25;72.90;96895.41;5038228;28;20262;-70
2023/05/27 00:23:04;;;;;;;1.88;1.05;;;;;;;15.36;72.18;96892.22;5038557;28;20209;-71
2023/05/27 00:25:31;;;;;;;2.63;0.93;;;;;;;15.33;72.59;96897.94;5038696;28;20212;-71
2023/05/27 00:27:57;;;;;;;1.15;0.98;;;;;;;15.20;71.44;96891.63;5037498;28;20252;-71
2023/05/27 00:30:24;;;;;;;2.00;1.02;;;;;;;15.30;70.72;96896.47;5037926;28;20213;-69
2023/05/27 00:32:50;;;;;;;1.67;0.73;;;;;;;15.29;71.33;96888.69;5038416;28;20221;-69
2023/05/27 00:35:17;;;;;;;1.60;1.33;;;;;;;15.24;70.29;96892.94;5038197;28;20205;-71
2023/05/27 00:37:44;;;;;;;1.30;1.20;;;;;;;15.15;71.38;96894.00;5036616;28;20220;-71
2023/05/27 00:40:15;;;;;;;1.45;1.17;;;;;;;15.05;72.81;96894.34;5037917;28;20886;-70
2023/05/27 00:42:41;;;;;;;1.83;1.40;;;;;;;14.96;72.83;96894.66;5038603;28;20202;-68
2023/05/27 00:45:09;;;;;;;4.15;1.63;;;;;;;14.95;73.60;96893.81;5037334;28;20212;-71
2023/05/27 00:47:36;;;;;;;1.23;0.90;;;;;;;14.73;73.87;96894.81;5037229;28;20229;-69
2023/05/27 00:50:04;;;;;;;4.88;1.55;;;;;;;14.74;75.03;96885.84;5037893;28;20205;-70
2023/05/27 00:52:31;;;;;;;4.18;1.80;;;;;;;14.63;75.24;96888.97;5037699;28;20228;-68
2023/05/27 00:54:59;;;;;;;0.93;0.90;;;;;;;14.68;74.79;96891.06;5038307;28;20205;-72
2023/05/27 00:57:27;;;;;;;5.05;1.20;;;;;;;14.51;74.92;96894.09;5037313;28;20239;-71
2023/05/27 00:59:53;;;;;;;3.08;1.42;;;;;;;14.34;76.48;96887.38;5037801;28;20198;-71
2023/05/27 01:02:20;;;;;;;11.63;1.02;;;;;;;14.45;76.87;96885.06;5037929;28;20223;-70
2023/05/27 01:04:48;;;;;;;1.77;1.17;;;;;;;14.23;76.86;96879.88;5037660;28;20205;-72
2023/05/27 01:07:22;;;;;;;2.53;1.27;;;;;;;14.37;76.67;96887.84;5037373;28;20296;-72
2023/05/27 01:09:56;;;;;;;2.45;1.55;;;;;;;14.13;77.56;96884.66;5037300;28;20212;-71
2023/05/27 01:12:38;;;;;;;5.20;1.63;;;;;;;14.24;77.15;96881.53;5037364;28;20229;-72
2023/05/27 01:15:07;;;;;;;1.40;1.17;;;;;;;14.08;77.20;96885.19;5038049;28;20578;-71
2023/05/27 01:17:37;;;;;;;5.93;2.58;;;;;;;13.91;78.12;96880.19;5036543;28;20253;-70
2023/05/27 01:20:05;;;;;;;4.68;1.55;;;;;;;13.85;78.61;96878.28;5036788;28;21245;-71
2023/05/27 01:22:35;;;;;;;2.35;1.63;;;;;;;13.80;78.73;96878.00;5036181;28;20689;-68
2023/05/27 01:25:02;;;;;;;4.35;1.05;;;;;;;13.74;78.56;96876.06;5037180;28;20250;-70
2023/05/27 01:27:29;;;;;;;4.82;1.10;;;;;;;13.94;78.35;96879.00;5036820;28;20640;-72
2023/05/27 01:29:56;;;;;;;2.03;1.83;;;;;;;13.91;78.85;96868.78;5037150;28;20217;-68
2023/05/27 01:32:28;;;;;;;1.38;0.70;;;;;;;14.02;77.79;96867.31;5037438;28;20578;-69
2023/05/27 01:35:00;;;;;;;3.10;1.05;;;;;;;13.98;78.75;96864.41;5036994;28;20212;-69
2023/05/27 01:37:29;;;;;;;0.85;0.85;;;;;;;13.77;79.82;96872.25;5036187;28;20692;-69
2023/05/27 01:39:59;;;;;;;4.55;1.10;;;;;;;13.83;79.75;96867.03;5037218;28;20204;-71
2023/05/27 01:42:26;;;;;;;2.45;1.10;;;;;;;13.72;80.07;96867.50;5036409;28;20201;-72
2023/05/27 01:44:53;;;;;;;1.45;0.73;;;;;;;13.74;79.95;96868.13;5036630;28;20201;-68
2023/05/27 01:47:19;;;;;;;1.65;0.90;;;;;;;13.73;80.72;96866.47;5036621;28;20700;-72
2023/05/27 01:49:46;;;;;;;4.72;1.27;;;;;;;13.75;80.07;96867.13;5036687;28;20201;-72
2023/05/27 01:52:12;;;;;;;1.65;1.52;;;;;;;13.67;79.85;96861.91;5036991;28;20232;-69
2023/05/27 01:54:39;;;;;;;3.88;1.83;;;;;;;13.69;80.05;96870.50;5036770;28;20208;-71
2023/05/27 01:57:07;;;;;;;1.30;0.90;;;;;;;13.62;79.66;96861.63;5036670;28;20201;-70
2023/05/27 01:59:34;;;;;;;2.75;0.90;;;;;;;13.57;78.47;96866.66;5036077;28;20232;-71
2023/05/27 02:02:00;;;;;;;0.63;0.63;;;;;;;13.43;78.31;96854.19;5036265;28;20205;-69
2023/05/27 02:04:27;;;;;;;2.75;1.27;;;;;;;13.49;79.08;96856.13;5035097;28;20213;-71
2023/05/27 02:06:53;;;;;;;1.75;1.20;;;;;;;13.41;79.33;96861.50;5036757;28;20237;-71
2023/05/27 02:09:20;;;;;;;3.65;1.30;;;;;;;13.47;81.17;96855.47;5036261;28;20244;-71
